Truthville, New York
Current Conditions -  °F | °C
As of 6:53 AM on Thursday 29 Jan 2015 (Local Time) from KGFL Reporting Station
Clear Clear  
Wind Chill: -9°   Ceiling: Unl
Heat Index: -9°   Visibility: 10mi
Dew Point: -14°   Wind: 0mph
Humidity: 79%   Direction: NA
Pressure: 30.33"   Gusts: NA
Location:  43.3389°N, 73.3194°W
Report Text: KGFL 291153Z AUTO 00000KT 10SM CLR M23/M26 A3033 RMK AO2 SLP290 T12281256 11189 21233 55006
Loading
Personal Weather Stations






























Interactive Weather Map New forecast layout! Learn more

10-Day Weather Forecast

Advertisements
Track Severe Weather on mobile